Anguilla, Mississippi
Current Conditions -  °F | °C
As of 2:53 AM on Thursday 18 Dec 2014 (Local Time) from KGLH Reporting Station
Light Rain Light Rain  
Wind Chill:   Ceiling: 5500
Heat Index:   Visibility: 6mi
Dew Point:   Wind: 8mph
Humidity: 85%   Direction: 40°NE
Pressure: 30.24"   Gusts: NA
Location:  32.97°N, 90.82°W
Report Text: KGLH 180853Z AUTO 04007KT 6SM -RA BR OVC055 06/03 A3024 RMK AO2 SLP249 P0000 60000 T00560033 50000
Loading
Personal Weather Stations






























Interactive Weather Map New forecast layout! Learn more

10-Day Weather Forecast

Advertisements
Track Severe Weather on mobile